createdAt,value
2023-05-08T00:02:22.615Z,1.00
2023-05-08T00:04:51.095Z,1.00
2023-05-08T00:07:19.366Z,1.67
2023-05-08T00:09:47.526Z,1.00
2023-05-08T00:12:15.472Z,1.00
2023-05-08T00:14:43.707Z,1.50
2023-05-08T00:17:12.777Z,1.00
2023-05-08T00:19:40.908Z,1.00
2023-05-08T00:22:08.885Z,1.50
2023-05-08T00:24:37.045Z,1.00
2023-05-08T00:27:05.369Z,1.00
2023-05-08T00:29:35.083Z,1.00
2023-05-08T00:32:03.326Z,1.00
2023-05-08T00:34:31.789Z,2.00
2023-05-08T00:36:59.845Z,1.00
2023-05-08T00:39:28.827Z,1.00
2023-05-08T00:41:56.815Z,1.67
2023-05-08T00:44:24.880Z,1.00
2023-05-08T00:46:52.814Z,2.00
2023-05-08T00:49:20.979Z,2.00
2023-05-08T00:51:51.469Z,2.67
2023-05-08T00:54:19.762Z,1.25
2023-05-08T00:56:47.918Z,1.00
2023-05-08T00:59:16.439Z,2.00
2023-05-08T01:01:44.498Z,1.00
2023-05-08T01:04:12.721Z,1.00
2023-05-08T01:06:40.739Z,1.00
2023-05-08T01:09:08.995Z,1.00
2023-05-08T01:12:16.324Z,1.50
2023-05-08T01:14:56.269Z,1.00
2023-05-08T01:17:59.267Z,2.00
2023-05-08T01:21:19.240Z,1.00
2023-05-08T01:23:53.144Z,1.00
2023-05-08T01:26:59.680Z,1.00
2023-05-08T01:29:35.987Z,1.00
2023-05-08T01:32:06.882Z,2.00
2023-05-08T01:34:36.019Z,1.00
2023-05-08T01:37:16.842Z,1.00
2023-05-08T01:39:51.643Z,1.00
2023-05-08T01:42:28.979Z,1.00
2023-05-08T01:44:59.700Z,1.00
2023-05-08T01:47:30.350Z,1.00
2023-05-08T01:50:24.499Z,2.00
2023-05-08T01:52:54.462Z,1.00
2023-05-08T01:55:27.512Z,0.50
2023-05-08T01:57:58.362Z,1.00
2023-05-08T02:00:28.746Z,0.00
2023-05-08T02:02:58.564Z,1.00
2023-05-08T02:05:27.035Z,1.00
2023-05-08T02:07:55.008Z,1.00
2023-05-08T02:10:23.282Z,0.67
2023-05-08T02:12:51.428Z,0.00
2023-05-08T02:15:20.225Z,1.00
2023-05-08T02:17:49.258Z,1.00
2023-05-08T02:20:17.771Z,0.00
2023-05-08T02:22:46.460Z,0.00
2023-05-08T02:25:15.246Z,0.00
2023-05-08T02:27:45.707Z,0.00
2023-05-08T02:30:15.173Z,1.00
2023-05-08T02:32:44.832Z,0.50
2023-05-08T02:35:13.808Z,1.00
2023-05-08T02:37:52.960Z,1.00
2023-05-08T02:40:21.618Z,1.00
2023-05-08T02:42:50.039Z,1.00
2023-05-08T02:45:18.280Z,0.67
2023-05-08T02:48:24.682Z,1.00
2023-05-08T02:50:57.716Z,0.33
2023-05-08T02:53:31.830Z,1.00
2023-05-08T02:56:07.883Z,0.75
2023-05-08T02:58:44.983Z,1.00
2023-05-08T03:01:49.009Z,1.00
2023-05-08T03:04:25.827Z,0.00
2023-05-08T03:06:55.392Z,1.00
2023-05-08T03:09:25.866Z,1.00
2023-05-08T03:11:59.174Z,1.00
2023-05-08T03:14:27.305Z,1.00
2023-05-08T03:16:56.368Z,1.00
2023-05-08T03:19:31.488Z,1.00
2023-05-08T03:21:59.524Z,0.75
2023-05-08T03:24:28.732Z,1.00
2023-05-08T03:26:56.913Z,1.00
2023-05-08T03:29:25.718Z,1.00
2023-05-08T03:31:53.775Z,2.00
2023-05-08T03:34:21.856Z,1.00
2023-05-08T03:36:50.726Z,1.00
2023-05-08T03:39:19.302Z,0.75
2023-05-08T03:41:48.079Z,1.00
2023-05-08T03:44:17.338Z,1.00
2023-05-08T03:46:45.410Z,1.00
2023-05-08T03:49:13.615Z,1.00
2023-05-08T03:51:41.576Z,1.00
2023-05-08T03:54:09.530Z,1.00
2023-05-08T03:56:37.754Z,0.75
2023-05-08T03:59:15.536Z,0.33
2023-05-08T04:02:00.647Z,1.00
2023-05-08T04:04:42.253Z,1.00
2023-05-08T04:07:30.649Z,1.00
2023-05-08T04:10:12.087Z,1.00
2023-05-08T04:13:05.023Z,1.00
2023-05-08T04:15:36.017Z,1.00
2023-05-08T04:18:08.784Z,1.00
2023-05-08T04:20:40.124Z,1.00
2023-05-08T04:23:09.383Z,1.00
2023-05-08T04:25:37.881Z,1.00
2023-05-08T04:28:06.330Z,0.25
2023-05-08T04:30:35.097Z,0.00
2023-05-08T04:33:04.434Z,1.00
2023-05-08T04:35:34.135Z,0.00
2023-05-08T04:38:03.318Z,1.00
2023-05-08T04:40:32.277Z,1.00
2023-05-08T04:43:00.757Z,0.67
2023-05-08T04:45:29.030Z,0.00
2023-05-08T04:47:57.210Z,0.25
2023-05-08T04:50:25.803Z,0.00
2023-05-08T04:52:54.888Z,1.00
2023-05-08T04:55:23.174Z,0.00
2023-05-08T04:57:51.333Z,0.00
2023-05-08T05:00:20.609Z,0.75
2023-05-08T05:02:48.936Z,0.00
2023-05-08T05:05:18.075Z,0.50
2023-05-08T05:07:46.193Z,1.00
2023-05-08T05:10:15.467Z,0.00
2023-05-08T05:12:44.202Z,0.00
2023-05-08T05:15:14.414Z,0.00
2023-05-08T05:17:42.759Z,0.00
2023-05-08T05:20:11.913Z,0.00
2023-05-08T05:22:40.034Z,0.00
2023-05-08T05:25:10.221Z,1.00
2023-05-08T05:27:40.326Z,1.00
2023-05-08T05:30:09.893Z,0.00
2023-05-08T05:32:38.977Z,0.00
2023-05-08T05:35:08.190Z,0.00
2023-05-08T05:37:36.660Z,1.00
2023-05-08T05:40:06.477Z,0.25
2023-05-08T05:42:35.466Z,0.00
2023-05-08T05:45:04.102Z,1.00
2023-05-08T05:47:32.574Z,1.00
2023-05-08T05:50:01.542Z,0.00
2023-05-08T05:52:32.316Z,0.00
2023-05-08T05:55:00.599Z,0.00
2023-05-08T05:57:29.813Z,0.75
2023-05-08T05:59:59.888Z,0.50
2023-05-08T06:02:28.397Z,0.00
2023-05-08T06:04:58.307Z,0.00
2023-05-08T06:07:26.300Z,0.00
2023-05-08T06:09:54.685Z,0.00
2023-05-08T06:12:22.849Z,0.00
2023-05-08T06:14:52.411Z,0.00
2023-05-08T06:17:20.609Z,0.00
2023-05-08T06:19:50.670Z,0.33
2023-05-08T06:22:19.104Z,0.00
2023-05-08T06:24:47.638Z,0.00
2023-05-08T06:27:15.905Z,1.00
2023-05-08T06:29:44.052Z,0.00
2023-05-08T06:32:12.078Z,0.00
2023-05-08T06:34:40.010Z,0.50
2023-05-08T06:37:08.078Z,0.00
2023-05-08T06:39:36.293Z,0.75
2023-05-08T06:42:08.072Z,0.00
2023-05-08T06:44:40.900Z,0.33
2023-05-08T06:47:09.642Z,1.00
2023-05-08T06:49:37.964Z,1.50
2023-05-08T06:52:06.671Z,1.00
2023-05-08T06:54:34.799Z,1.00
2023-05-08T06:57:03.392Z,0.00
2023-05-08T06:59:31.428Z,0.00
2023-05-08T07:01:59.855Z,1.00
2023-05-08T07:04:29.562Z,4.00
2023-05-08T07:06:58.836Z,1.00
2023-05-08T07:09:27.237Z,1.00
2023-05-08T07:11:55.291Z,0.00
2023-05-08T07:14:23.375Z,0.00
2023-05-08T07:16:51.313Z,0.00
2023-05-08T07:19:22.352Z,0.00
2023-05-08T07:21:51.240Z,0.00
2023-05-08T07:24:19.954Z,0.00
2023-05-08T07:26:48.116Z,0.00
2023-05-08T07:29:16.366Z,0.00
2023-05-08T07:31:46.512Z,0.67
2023-05-08T07:34:15.372Z,1.00
2023-05-08T07:36:43.982Z,0.00
2023-05-08T07:39:12.553Z,0.00
2023-05-08T07:41:41.270Z,1.00
2023-05-08T07:44:09.724Z,0.00
2023-05-08T07:46:38.399Z,1.00
2023-05-08T07:49:07.552Z,1.00
2023-05-08T07:51:35.962Z,1.00
2023-05-08T07:54:04.763Z,0.00
2023-05-08T07:56:32.923Z,0.00
2023-05-08T07:59:01.707Z,0.00
2023-05-08T08:01:29.723Z,0.33
2023-05-08T08:03:57.855Z,0.67
2023-05-08T08:06:26.222Z,1.00
2023-05-08T08:08:54.605Z,0.00
2023-05-08T08:11:23.000Z,0.00
2023-05-08T08:13:51.980Z,0.00
2023-05-08T08:16:20.084Z,0.00
2023-05-08T08:18:48.425Z,0.00
2023-05-08T08:21:17.519Z,0.00
2023-05-08T08:23:45.731Z,0.00
2023-05-08T08:26:14.484Z,0.00
2023-05-08T08:28:42.601Z,0.00
2023-05-08T08:31:10.863Z,0.00
2023-05-08T08:33:39.115Z,0.00
2023-05-08T08:36:13.427Z,0.00
2023-05-08T08:38:41.499Z,0.00
2023-05-08T08:41:09.710Z,0.00
2023-05-08T08:43:43.472Z,0.00
2023-05-08T08:46:14.817Z,0.25
2023-05-08T08:48:47.200Z,1.00
2023-05-08T08:51:24.022Z,1.00
2023-05-08T08:54:04.425Z,1.00
2023-05-08T08:56:33.628Z,0.00
2023-05-08T08:59:02.036Z,0.00
2023-05-08T09:01:31.126Z,2.00
2023-05-08T09:04:00.196Z,0.00
2023-05-08T09:06:29.389Z,0.00
2023-05-08T09:09:00.526Z,1.00
2023-05-08T09:11:29.124Z,0.25
2023-05-08T09:13:58.941Z,1.00
2023-05-08T09:16:27.269Z,1.00
2023-05-08T09:18:55.690Z,1.50
2023-05-08T09:21:23.984Z,1.00
2023-05-08T09:23:57.045Z,1.00
2023-05-08T09:26:38.877Z,1.00
2023-05-08T09:29:20.517Z,0.00
2023-05-08T09:31:50.722Z,1.00
2023-05-08T09:34:24.926Z,4.67
2023-05-08T09:36:53.031Z,1.00
2023-05-08T09:39:25.434Z,0.50
2023-05-08T09:42:06.267Z,0.00
2023-05-08T09:44:47.576Z,0.00
2023-05-08T09:47:17.068Z,0.50
2023-05-08T09:50:01.838Z,1.00
2023-05-08T09:52:30.561Z,5.00
2023-05-08T09:54:59.704Z,4.00
2023-05-08T09:57:32.193Z,4.50
2023-05-08T10:00:02.038Z,3.00
2023-05-08T10:02:30.477Z,0.00
2023-05-08T10:04:58.956Z,1.00
2023-05-08T10:07:32.252Z,1.00
2023-05-08T10:10:01.918Z,0.00
2023-05-08T10:12:30.922Z,0.00
2023-05-08T10:14:59.219Z,0.00
2023-05-08T10:17:55.994Z,0.00
2023-05-08T10:20:24.245Z,0.67
2023-05-08T10:22:52.349Z,0.00
2023-05-08T10:25:20.989Z,0.00
2023-05-08T10:28:07.400Z,0.00
2023-05-08T10:30:35.382Z,0.00
2023-05-08T10:33:03.794Z,0.00
2023-05-08T10:35:32.035Z,0.00
2023-05-08T10:38:00.197Z,0.00
2023-05-08T10:40:28.677Z,0.00
2023-05-08T10:42:57.764Z,0.00
2023-05-08T10:45:25.848Z,0.00
2023-05-08T10:48:04.704Z,1.00
2023-05-08T10:51:06.723Z,4.00
2023-05-08T10:53:37.454Z,4.00
2023-05-08T10:56:05.637Z,0.00
2023-05-08T10:58:34.823Z,0.00
2023-05-08T11:01:07.970Z,0.00
2023-05-08T11:03:46.840Z,0.00
2023-05-08T11:06:15.236Z,0.00
2023-05-08T11:08:50.677Z,0.00
2023-05-08T11:11:29.814Z,0.00
2023-05-08T11:14:03.586Z,0.00
2023-05-08T11:16:53.908Z,0.00
2023-05-08T11:19:23.228Z,0.00
2023-05-08T11:22:14.094Z,0.00
2023-05-08T11:24:58.536Z,1.00
2023-05-08T11:27:48.835Z,0.25
2023-05-08T11:30:26.743Z,1.00
2023-05-08T11:33:04.047Z,0.00
2023-05-08T11:35:51.647Z,0.00
2023-05-08T11:38:29.774Z,0.00
2023-05-08T11:40:59.306Z,0.00
2023-05-08T11:43:34.405Z,1.00
2023-05-08T11:46:14.047Z,0.50
2023-05-08T11:48:42.615Z,1.00
2023-05-08T11:51:10.794Z,0.00
2023-05-08T11:53:39.079Z,0.00
2023-05-08T11:56:08.332Z,0.00
2023-05-08T11:58:36.947Z,0.33
2023-05-08T12:01:05.160Z,0.00
2023-05-08T12:03:33.506Z,0.00
2023-05-08T12:06:01.877Z,0.00
2023-05-08T12:08:30.063Z,0.00
2023-05-08T12:10:58.307Z,0.00
2023-05-08T12:13:30.786Z,0.00
2023-05-08T12:16:00.241Z,0.67
2023-05-08T12:18:30.622Z,0.00
2023-05-08T12:21:01.459Z,0.00
2023-05-08T12:23:29.802Z,0.00
2023-05-08T12:26:01.551Z,0.00
2023-05-08T12:28:30.455Z,0.00
2023-05-08T12:30:58.608Z,0.00
2023-05-08T12:33:27.858Z,0.00
2023-05-08T12:35:57.264Z,0.00
2023-05-08T12:38:26.925Z,0.67
2023-05-08T12:40:57.935Z,0.00
2023-05-08T12:43:36.036Z,0.00
2023-05-08T12:46:04.992Z,0.00
2023-05-08T12:48:33.178Z,0.00
2023-05-08T12:51:02.412Z,1.00
2023-05-08T12:53:31.934Z,0.00
2023-05-08T12:56:04.209Z,0.00
2023-05-08T12:58:34.182Z,0.00
2023-05-08T13:01:13.727Z,0.00
2023-05-08T13:03:42.135Z,0.00
2023-05-08T13:06:21.324Z,1.00
2023-05-08T13:08:54.726Z,1.00
2023-05-08T13:11:33.378Z,0.00
2023-05-08T13:14:01.733Z,0.00
2023-05-08T13:16:29.812Z,0.00
2023-05-08T13:18:58.567Z,0.00
2023-05-08T13:21:28.064Z,0.00
2023-05-08T13:23:57.065Z,0.00
2023-05-08T13:26:25.947Z,0.00
2023-05-08T13:28:56.206Z,0.00
2023-05-08T13:31:24.830Z,0.00
2023-05-08T13:33:53.082Z,0.00
2023-05-08T13:36:22.130Z,0.00
2023-05-08T13:38:54.528Z,0.00
2023-05-08T13:41:22.575Z,0.00
2023-05-08T13:43:51.664Z,0.00
2023-05-08T13:46:19.929Z,0.00
2023-05-08T13:48:48.622Z,0.00
2023-05-08T13:51:16.893Z,0.00
2023-05-08T13:53:45.001Z,0.00
2023-05-08T13:56:13.142Z,0.00
2023-05-08T13:58:41.513Z,0.00
2023-05-08T14:01:24.834Z,0.00
2023-05-08T14:03:55.717Z,0.00
2023-05-08T14:06:24.180Z,0.00
2023-05-08T14:08:54.600Z,0.00
2023-05-08T14:11:25.037Z,0.00
2023-05-08T14:13:53.227Z,0.00
2023-05-08T14:16:22.068Z,0.00
2023-05-08T14:18:50.150Z,0.00
2023-05-08T14:21:18.238Z,0.00
2023-05-08T14:23:46.417Z,0.00
2023-05-08T14:26:14.663Z,0.00
2023-05-08T14:28:42.748Z,0.00
2023-05-08T14:31:11.089Z,0.00
2023-05-08T14:33:39.310Z,0.00
2023-05-08T14:36:08.833Z,0.00
2023-05-08T14:38:36.963Z,0.00
2023-05-08T14:41:05.480Z,0.00
2023-05-08T14:43:33.662Z,0.00
2023-05-08T14:46:02.142Z,0.00
2023-05-08T14:48:30.192Z,0.00
2023-05-08T14:50:58.958Z,0.00
2023-05-08T14:53:27.431Z,0.00
2023-05-08T14:55:55.945Z,0.00
2023-05-08T14:58:24.813Z,0.00
2023-05-08T15:00:53.006Z,0.00
2023-05-08T15:03:21.182Z,0.00
2023-05-08T15:05:49.422Z,0.00
2023-05-08T15:08:17.605Z,0.00
2023-05-08T15:10:46.001Z,0.00
2023-05-08T15:13:14.191Z,0.00
2023-05-08T15:15:42.766Z,0.00
2023-05-08T15:18:11.315Z,0.00
2023-05-08T15:20:39.698Z,0.00
2023-05-08T15:23:07.775Z,0.00
2023-05-08T15:25:36.294Z,0.00
2023-05-08T15:28:04.654Z,0.00
2023-05-08T15:30:32.691Z,0.00
2023-05-08T15:33:01.603Z,0.00
2023-05-08T15:35:29.984Z,0.00
2023-05-08T15:37:58.037Z,0.00
2023-05-08T15:40:26.168Z,0.00
2023-05-08T15:42:54.270Z,0.00
2023-05-08T15:45:22.663Z,0.00
2023-05-08T15:47:50.763Z,0.00
2023-05-08T15:50:18.774Z,0.00
2023-05-08T15:52:46.972Z,0.00
2023-05-08T15:55:15.550Z,0.00
2023-05-08T15:57:44.438Z,0.00
2023-05-08T16:00:14.076Z,0.00
2023-05-08T16:02:42.203Z,0.00
2023-05-08T16:05:10.843Z,0.00
2023-05-08T16:07:39.180Z,0.00
2023-05-08T16:10:08.177Z,0.00
2023-05-08T16:12:36.364Z,0.00
2023-05-08T16:15:05.145Z,0.00
2023-05-08T16:17:33.980Z,0.00
2023-05-08T16:20:04.048Z,0.00
2023-05-08T16:22:32.108Z,0.00
2023-05-08T16:25:00.488Z,0.00
2023-05-08T16:27:29.928Z,0.00
2023-05-08T16:29:58.378Z,0.00
2023-05-08T16:32:27.510Z,0.00
2023-05-08T16:34:55.690Z,0.00
2023-05-08T16:37:24.230Z,0.00
2023-05-08T16:39:52.498Z,0.00
2023-05-08T16:42:21.417Z,0.00
2023-05-08T16:44:49.467Z,0.00
2023-05-08T16:47:17.526Z,0.00
2023-05-08T16:49:45.801Z,0.00
2023-05-08T16:52:14.124Z,0.00
2023-05-08T16:54:42.251Z,0.00
2023-05-08T16:57:10.352Z,0.00
2023-05-08T16:59:38.418Z,0.00
2023-05-08T17:02:06.679Z,0.00
2023-05-08T17:04:34.863Z,0.00
2023-05-08T17:07:05.363Z,0.00
2023-05-08T17:09:34.920Z,0.00
2023-05-08T17:12:03.380Z,0.00
2023-05-08T17:14:31.524Z,0.00
2023-05-08T17:16:59.697Z,0.00
2023-05-08T17:19:27.764Z,0.00
2023-05-08T17:21:58.213Z,0.00
2023-05-08T17:24:29.827Z,0.00
2023-05-08T17:26:58.364Z,0.00
2023-05-08T17:29:26.626Z,0.00
2023-05-08T17:31:54.802Z,0.00
2023-05-08T17:34:23.405Z,0.00
2023-05-08T17:36:52.436Z,0.00
2023-05-08T17:39:22.500Z,0.00
2023-05-08T17:41:51.681Z,0.00
2023-05-08T17:44:19.753Z,0.00
2023-05-08T17:46:47.839Z,0.00
2023-05-08T17:49:18.512Z,0.00
2023-05-08T17:51:47.433Z,0.00
2023-05-08T17:54:15.603Z,0.00
2023-05-08T17:56:45.243Z,0.00
2023-05-08T17:59:13.429Z,0.00
2023-05-08T18:01:41.601Z,0.00
2023-05-08T18:04:10.998Z,0.00
2023-05-08T18:06:39.028Z,0.00
2023-05-08T18:09:07.305Z,0.00
2023-05-08T18:11:35.381Z,0.00
2023-05-08T18:14:03.372Z,0.00
2023-05-08T18:16:31.711Z,0.00
2023-05-08T18:19:00.418Z,0.00
2023-05-08T18:21:29.110Z,0.00
2023-05-08T18:23:57.299Z,0.00
2023-05-08T18:26:25.749Z,0.00
2023-05-08T18:28:54.120Z,0.00
2023-05-08T18:31:22.309Z,0.00
2023-05-08T18:33:50.574Z,0.00
2023-05-08T18:36:18.772Z,0.00
2023-05-08T18:38:47.229Z,0.00
2023-05-08T18:41:15.735Z,0.00
2023-05-08T18:43:45.075Z,0.00
2023-05-08T18:46:13.724Z,0.00
2023-05-08T18:48:41.981Z,0.00
2023-05-08T18:51:10.783Z,0.00
2023-05-08T18:53:39.559Z,0.00
2023-05-08T18:56:07.826Z,0.00
2023-05-08T18:58:36.025Z,0.00
2023-05-08T19:01:06.254Z,0.00
2023-05-08T19:03:34.429Z,0.00
2023-05-08T19:06:02.654Z,0.00
2023-05-08T19:08:31.036Z,0.00
2023-05-08T19:10:59.135Z,0.00
2023-05-08T19:13:27.278Z,0.00
2023-05-08T19:15:55.564Z,0.00
2023-05-08T19:18:23.666Z,0.00
2023-05-08T19:20:51.696Z,0.00
2023-05-08T19:23:19.884Z,0.00
2023-05-08T19:25:48.155Z,0.00
2023-05-08T19:28:16.218Z,0.00
2023-05-08T19:30:44.316Z,0.00
2023-05-08T19:33:12.457Z,0.00
2023-05-08T19:35:40.540Z,0.00
2023-05-08T19:38:08.695Z,0.00
2023-05-08T19:40:48.054Z,0.00
2023-05-08T19:43:23.403Z,0.00
2023-05-08T19:45:51.669Z,0.00
2023-05-08T19:48:20.327Z,0.00
2023-05-08T19:50:48.672Z,0.00
2023-05-08T19:53:16.706Z,0.00
2023-05-08T19:55:44.879Z,0.00
2023-05-08T19:58:12.923Z,0.00
2023-05-08T20:00:41.459Z,0.00
2023-05-08T20:03:09.672Z,0.00
2023-05-08T20:05:37.849Z,0.00
2023-05-08T20:08:06.127Z,0.00
2023-05-08T20:10:34.104Z,0.00
2023-05-08T20:13:02.263Z,0.00
2023-05-08T20:15:31.617Z,0.00
2023-05-08T20:18:00.010Z,0.00
2023-05-08T20:20:29.886Z,0.00
2023-05-08T20:22:58.558Z,0.00
2023-05-08T20:25:27.251Z,0.00
2023-05-08T20:27:55.371Z,0.00
2023-05-08T20:30:24.199Z,0.00
2023-05-08T20:32:52.650Z,0.00
2023-05-08T20:35:21.058Z,0.00
2023-05-08T20:37:49.528Z,0.00
2023-05-08T20:40:18.631Z,0.00
2023-05-08T20:42:46.791Z,0.00
2023-05-08T20:45:14.871Z,0.00
2023-05-08T20:47:43.182Z,0.00
2023-05-08T20:50:12.027Z,0.00
2023-05-08T20:52:42.385Z,0.00
2023-05-08T20:55:11.398Z,0.00
2023-05-08T20:57:40.265Z,0.00
2023-05-08T21:00:09.269Z,0.00
2023-05-08T21:02:39.038Z,0.00
2023-05-08T21:05:07.953Z,0.00
2023-05-08T21:07:36.480Z,0.00
2023-05-08T21:10:05.330Z,0.00
2023-05-08T21:12:33.371Z,0.00
2023-05-08T21:15:01.746Z,0.00
2023-05-08T21:17:29.973Z,0.00
2023-05-08T21:19:58.613Z,0.00
2023-05-08T21:22:26.687Z,0.00
2023-05-08T21:24:54.775Z,0.00
2023-05-08T21:27:22.920Z,0.00
2023-05-08T21:29:51.096Z,0.00
2023-05-08T21:32:19.267Z,0.00
2023-05-08T21:34:47.545Z,0.00
2023-05-08T21:37:15.621Z,0.00
2023-05-08T21:39:43.711Z,0.00
2023-05-08T21:42:11.761Z,0.00
2023-05-08T21:44:40.449Z,0.00
2023-05-08T21:47:08.572Z,0.00
2023-05-08T21:49:36.582Z,0.00
2023-05-08T21:52:05.066Z,0.00
2023-05-08T21:54:33.143Z,0.00
2023-05-08T21:57:01.323Z,0.00
2023-05-08T21:59:29.488Z,0.00
2023-05-08T22:01:58.196Z,0.00
2023-05-08T22:04:27.172Z,0.00
2023-05-08T22:06:55.332Z,0.00
2023-05-08T22:09:23.405Z,0.00
2023-05-08T22:11:51.681Z,0.00
2023-05-08T22:14:19.747Z,0.00
2023-05-08T22:16:47.930Z,0.00
2023-05-08T22:19:16.848Z,0.00
2023-05-08T22:21:45.800Z,0.00
2023-05-08T22:24:15.220Z,0.00
2023-05-08T22:26:43.319Z,0.00
2023-05-08T22:29:11.455Z,0.00
2023-05-08T22:31:39.672Z,0.00
2023-05-08T22:34:08.670Z,0.00
2023-05-08T22:36:37.425Z,0.00
2023-05-08T22:39:07.008Z,0.00
2023-05-08T22:41:34.937Z,0.00
2023-05-08T22:44:03.175Z,0.00
2023-05-08T22:46:32.891Z,0.00
2023-05-08T22:49:01.146Z,0.00
2023-05-08T22:51:30.622Z,0.00
2023-05-08T22:53:58.754Z,0.00
2023-05-08T22:56:26.887Z,0.00
2023-05-08T22:58:55.173Z,0.00
2023-05-08T23:01:23.325Z,0.00
2023-05-08T23:03:52.625Z,0.00
2023-05-08T23:06:21.208Z,0.00
2023-05-08T23:08:49.279Z,0.00
2023-05-08T23:11:17.285Z,0.00
2023-05-08T23:13:45.417Z,0.00
2023-05-08T23:16:13.421Z,0.00
2023-05-08T23:18:41.858Z,0.00
2023-05-08T23:21:09.940Z,0.00
2023-05-08T23:23:38.547Z,0.00
2023-05-08T23:26:07.036Z,0.00
2023-05-08T23:28:35.583Z,0.00
2023-05-08T23:31:04.091Z,0.00
2023-05-08T23:33:32.778Z,0.00
2023-05-08T23:36:00.799Z,0.00
2023-05-08T23:38:28.875Z,0.00
2023-05-08T23:40:56.978Z,0.00
2023-05-08T23:43:25.188Z,0.00
2023-05-08T23:45:53.217Z,0.00
2023-05-08T23:48:21.497Z,0.00
2023-05-08T23:50:49.688Z,0.00
2023-05-08T23:53:17.741Z,0.00
2023-05-08T23:55:45.793Z,0.00
2023-05-08T23:58:13.968Z,0.00
